createdAt,value
2018-11-02T00:01:25.502Z,16.33
2018-11-02T00:03:53.673Z,14.67
2018-11-02T00:06:21.855Z,15.97
2018-11-02T00:08:50.533Z,14.63
2018-11-02T00:11:19.546Z,16.70
2018-11-02T00:13:48.148Z,19.10
2018-11-02T00:16:16.308Z,17.23
2018-11-02T00:18:44.464Z,20.33
2018-11-02T00:21:12.625Z,17.33
2018-11-02T00:23:40.760Z,17.93
2018-11-02T00:26:08.977Z,15.80
2018-11-02T00:28:37.117Z,18.13
2018-11-02T00:31:05.482Z,16.77
2018-11-02T00:33:33.616Z,18.20
2018-11-02T00:36:01.752Z,19.40
2018-11-02T00:38:29.900Z,17.53
2018-11-02T00:40:58.036Z,16.07
2018-11-02T00:43:26.169Z,18.07
2018-11-02T00:45:54.324Z,18.33
2018-11-02T00:48:22.427Z,16.50
2018-11-02T00:50:50.614Z,17.63
2018-11-02T00:53:18.730Z,16.60
2018-11-02T00:55:46.833Z,17.27
2018-11-02T00:58:15.184Z,17.17
2018-11-02T01:00:43.421Z,17.50
2018-11-02T01:03:11.723Z,19.70
2018-11-02T01:05:40.258Z,18.83
2018-11-02T01:08:08.448Z,20.27
2018-11-02T01:10:36.599Z,17.10
2018-11-02T01:13:04.713Z,19.07
2018-11-02T01:15:32.863Z,18.37
2018-11-02T01:18:00.988Z,16.23
2018-11-02T01:20:29.117Z,20.07
2018-11-02T01:22:57.252Z,17.30
2018-11-02T01:25:25.427Z,17.20
2018-11-02T01:27:53.546Z,15.70
2018-11-02T01:30:21.677Z,20.90
2018-11-02T01:32:49.780Z,18.37
2018-11-02T01:35:17.934Z,16.53
2018-11-02T01:37:46.113Z,16.80
2018-11-02T01:40:14.254Z,16.63
2018-11-02T01:42:42.373Z,18.63
2018-11-02T01:45:10.568Z,21.67
2018-11-02T01:47:38.732Z,18.03
2018-11-02T01:50:06.944Z,17.67
2018-11-02T01:52:35.056Z,18.20
2018-11-02T01:55:03.209Z,20.03
2018-11-02T01:57:31.316Z,16.13
2018-11-02T01:59:59.459Z,15.50
2018-11-02T02:02:27.563Z,16.27
2018-11-02T02:04:55.716Z,16.23
2018-11-02T02:07:23.856Z,15.07
2018-11-02T02:09:52.097Z,15.37
2018-11-02T02:12:20.263Z,17.73
2018-11-02T02:14:48.421Z,15.47
2018-11-02T02:17:16.484Z,14.37
2018-11-02T02:19:44.602Z,15.90
2018-11-02T02:22:12.698Z,15.87
2018-11-02T02:24:40.854Z,15.13
2018-11-02T02:27:09.006Z,15.43
2018-11-02T02:29:37.139Z,17.07
2018-11-02T02:32:05.280Z,16.27
2018-11-02T02:34:33.396Z,14.23
2018-11-02T02:37:01.525Z,16.30
2018-11-02T02:39:29.662Z,19.20
2018-11-02T02:41:57.799Z,18.30
2018-11-02T02:44:25.925Z,15.50
2018-11-02T02:46:54.022Z,15.43
2018-11-02T02:49:22.124Z,17.10
2018-11-02T02:51:50.225Z,17.30
2018-11-02T02:54:18.333Z,14.93
2018-11-02T02:56:46.596Z,18.17
2018-11-02T02:59:14.718Z,16.13
2018-11-02T03:01:42.845Z,21.40
2018-11-02T03:04:10.975Z,17.80
2018-11-02T03:06:39.164Z,17.30
2018-11-02T03:09:07.800Z,18.10
2018-11-02T03:11:36.276Z,16.97
2018-11-02T03:14:04.833Z,16.67
2018-11-02T03:16:33.026Z,16.10
2018-11-02T03:19:01.198Z,17.30
2018-11-02T03:21:29.369Z,15.90
2018-11-02T03:23:57.499Z,16.97
2018-11-02T03:26:25.604Z,15.67
2018-11-02T03:28:53.703Z,15.10
2018-11-02T03:31:21.835Z,16.93
2018-11-02T03:33:49.973Z,14.77
2018-11-02T03:36:18.075Z,17.90
2018-11-02T03:38:46.190Z,15.63
2018-11-02T03:41:14.283Z,16.00
2018-11-02T03:43:42.450Z,15.30
2018-11-02T03:46:10.566Z,17.80
2018-11-02T03:48:38.687Z,18.23
2018-11-02T03:51:06.807Z,15.30
2018-11-02T03:53:34.896Z,13.50
2018-11-02T03:56:03.040Z,15.87
2018-11-02T03:58:31.171Z,15.57
2018-11-02T04:00:59.305Z,17.37
2018-11-02T04:03:27.450Z,16.97
2018-11-02T04:05:55.571Z,14.53
2018-11-02T04:08:23.735Z,13.87
2018-11-02T04:10:51.940Z,18.30
2018-11-02T04:13:20.365Z,15.00
2018-11-02T04:15:48.591Z,15.57
2018-11-02T04:18:16.695Z,15.17
2018-11-02T04:20:44.977Z,17.90
2018-11-02T04:23:13.137Z,18.57
2018-11-02T04:25:41.289Z,20.57
2018-11-02T04:28:09.449Z,16.40
2018-11-02T04:30:37.654Z,18.10
2018-11-02T04:33:05.833Z,17.27
2018-11-02T04:35:34.022Z,15.70
2018-11-02T04:38:02.130Z,15.97
2018-11-02T04:40:30.273Z,17.87
2018-11-02T04:42:58.405Z,19.03
2018-11-02T04:45:31.992Z,18.07
2018-11-02T04:48:00.542Z,17.57
2018-11-02T04:50:28.671Z,17.80
2018-11-02T04:52:56.757Z,19.10
2018-11-02T04:55:24.856Z,16.73
2018-11-02T04:57:53.005Z,16.73
2018-11-02T05:00:21.099Z,19.43
2018-11-02T05:02:49.254Z,16.47
2018-11-02T05:05:17.413Z,17.10
2018-11-02T05:07:45.609Z,17.50
2018-11-02T05:10:13.693Z,20.67
2018-11-02T05:12:41.801Z,18.23
2018-11-02T05:15:09.917Z,18.43
2018-11-02T05:17:38.097Z,21.70
2018-11-02T05:20:06.851Z,17.80
2018-11-02T05:22:34.949Z,19.90
2018-11-02T05:25:03.231Z,19.43
2018-11-02T05:27:31.400Z,19.07
2018-11-02T05:29:59.564Z,17.80
2018-11-02T05:32:27.691Z,18.07
2018-11-02T05:34:55.826Z,20.83
2018-11-02T05:37:23.995Z,16.73
2018-11-02T05:39:52.160Z,17.50
2018-11-02T05:42:20.377Z,20.40
2018-11-02T05:44:48.872Z,19.10
2018-11-02T05:47:17.099Z,20.53
2018-11-02T05:49:45.165Z,18.10
2018-11-02T05:52:13.338Z,18.93
2018-11-02T05:54:41.679Z,20.30
2018-11-02T05:57:10.057Z,16.20
2018-11-02T05:59:38.201Z,18.67
2018-11-02T06:02:06.553Z,15.63
2018-11-02T06:04:34.689Z,18.30
2018-11-02T06:07:02.857Z,14.63
2018-11-02T06:09:30.976Z,16.53
2018-11-02T06:11:59.142Z,15.60
2018-11-02T06:14:27.213Z,14.10
2018-11-02T06:16:55.469Z,15.83
2018-11-02T06:19:23.574Z,17.97
2018-11-02T06:21:51.707Z,14.47
2018-11-02T06:24:19.904Z,16.17
2018-11-02T06:26:47.927Z,14.83
2018-11-02T06:29:16.111Z,15.27
2018-11-02T06:31:44.256Z,16.10
2018-11-02T06:34:12.381Z,16.40
2018-11-02T06:36:40.519Z,16.57
2018-11-02T06:39:09.661Z,18.87
2018-11-02T06:41:37.783Z,15.03
2018-11-02T06:44:05.969Z,16.03
2018-11-02T06:46:34.141Z,14.87
2018-11-02T06:49:02.298Z,16.70
2018-11-02T06:51:30.482Z,14.47
2018-11-02T06:53:58.569Z,14.60
2018-11-02T06:56:26.744Z,14.20
2018-11-02T06:58:54.899Z,13.87
2018-11-02T07:01:23.027Z,15.40
2018-11-02T07:03:52.029Z,15.70
2018-11-02T07:06:20.177Z,13.07
2018-11-02T07:08:48.321Z,16.20
2018-11-02T07:11:16.486Z,14.07
2018-11-02T07:13:44.697Z,14.60
2018-11-02T07:16:12.849Z,12.97
2018-11-02T07:18:40.949Z,11.37
2018-11-02T07:21:09.095Z,12.93
2018-11-02T07:23:37.247Z,12.17
2018-11-02T07:26:05.431Z,12.57
2018-11-02T07:28:33.521Z,11.73
2018-11-02T07:31:01.652Z,12.43
2018-11-02T07:33:29.837Z,11.77
2018-11-02T07:35:57.985Z,12.43
2018-11-02T07:38:26.143Z,17.83
2018-11-02T07:40:54.254Z,21.03
2018-11-02T07:43:22.405Z,15.73
2018-11-02T07:45:50.579Z,13.53
2018-11-02T07:48:18.703Z,10.80
2018-11-02T07:50:46.841Z,11.33
2018-11-02T07:53:14.981Z,11.93
2018-11-02T07:55:43.117Z,13.93
2018-11-02T07:58:11.255Z,12.00
2018-11-02T08:00:39.435Z,12.60
2018-11-02T08:03:07.616Z,12.17
2018-11-02T08:05:37.299Z,12.20
2018-11-02T08:08:05.422Z,11.37
2018-11-02T08:10:33.572Z,12.20
2018-11-02T08:13:01.774Z,12.67
2018-11-02T08:15:29.912Z,15.50
2018-11-02T08:17:58.034Z,11.37
2018-11-02T08:20:26.141Z,12.33
2018-11-02T08:22:54.270Z,12.07
2018-11-02T08:25:22.379Z,15.77
2018-11-02T08:27:50.541Z,11.87
2018-11-02T08:30:18.676Z,11.20
2018-11-02T08:32:46.837Z,9.40
2018-11-02T08:35:14.968Z,12.67
2018-11-02T08:37:43.121Z,13.23
2018-11-02T08:40:12.464Z,11.00
2018-11-02T08:42:40.902Z,11.43
2018-11-02T08:45:09.572Z,15.00
2018-11-02T08:47:37.824Z,12.13
2018-11-02T08:50:06.686Z,11.10
2018-11-02T08:52:34.840Z,11.67
2018-11-02T08:55:02.937Z,11.83
2018-11-02T08:57:31.054Z,12.47
2018-11-02T08:59:59.281Z,13.63
2018-11-02T09:02:27.478Z,11.70
2018-11-02T09:04:55.695Z,12.40
2018-11-02T09:07:23.850Z,17.67
2018-11-02T09:09:52.068Z,11.63
2018-11-02T09:12:20.271Z,13.57
2018-11-02T09:14:48.432Z,13.80
2018-11-02T09:17:16.579Z,15.23
2018-11-02T09:19:44.695Z,13.33
2018-11-02T09:22:12.880Z,14.27
2018-11-02T09:24:41.060Z,15.93
2018-11-02T09:27:09.282Z,12.73
2018-11-02T09:29:37.367Z,13.40
2018-11-02T09:32:05.560Z,12.70
2018-11-02T09:34:33.677Z,14.77
2018-11-02T09:37:01.902Z,13.93
2018-11-02T09:39:30.068Z,13.57
2018-11-02T09:41:58.280Z,14.93
2018-11-02T09:44:26.437Z,15.07
2018-11-02T09:46:54.618Z,15.17
2018-11-02T09:49:22.890Z,16.77
2018-11-02T09:51:51.123Z,15.67
2018-11-02T09:54:19.508Z,17.80
2018-11-02T09:56:47.682Z,15.83
2018-11-02T09:59:15.852Z,20.40
2018-11-02T10:01:44.030Z,16.03
2018-11-02T10:04:12.143Z,18.67
2018-11-02T10:06:40.302Z,14.80
2018-11-02T10:09:09.651Z,15.77
2018-11-02T10:11:37.778Z,18.70
2018-11-02T10:14:05.908Z,16.20
2018-11-02T10:16:34.074Z,16.10
2018-11-02T10:19:02.215Z,16.43
2018-11-02T10:21:30.420Z,16.73
2018-11-02T10:23:58.661Z,15.93
2018-11-02T10:26:26.706Z,15.70
2018-11-02T10:28:54.825Z,15.17
2018-11-02T10:31:23.051Z,15.90
2018-11-02T10:33:51.232Z,16.03
2018-11-02T10:36:19.424Z,17.67
2018-11-02T10:38:47.581Z,13.90
2018-11-02T10:41:17.675Z,15.20
2018-11-02T10:43:45.821Z,14.90
2018-11-02T10:46:14.062Z,18.37
2018-11-02T10:48:42.193Z,16.83
2018-11-02T10:51:10.334Z,18.00
2018-11-02T10:53:38.412Z,15.67
2018-11-02T10:56:06.515Z,14.43
2018-11-02T10:58:34.580Z,15.57
2018-11-02T11:01:08.461Z,16.97
2018-11-02T11:03:36.395Z,16.93
2018-11-02T11:06:04.940Z,15.33
2018-11-02T11:08:33.122Z,16.43
2018-11-02T11:11:01.234Z,16.87
2018-11-02T11:13:29.664Z,13.80
2018-11-02T11:15:57.574Z,15.00
2018-11-02T11:18:25.685Z,16.97
2018-11-02T11:20:53.839Z,13.50
2018-11-02T11:23:22.000Z,13.90
2018-11-02T11:25:50.130Z,16.50
2018-11-02T11:28:18.301Z,18.00
2018-11-02T11:30:46.436Z,11.53
2018-11-02T11:33:14.626Z,12.93
2018-11-02T11:35:42.758Z,12.87
2018-11-02T11:38:10.987Z,12.23
2018-11-02T11:40:39.121Z,12.33
2018-11-02T11:43:07.195Z,16.77
2018-11-02T11:45:35.326Z,13.10
2018-11-02T11:48:03.471Z,11.43
2018-11-02T11:50:31.560Z,12.73
2018-11-02T11:52:59.723Z,16.10
2018-11-02T11:55:27.908Z,16.47
2018-11-02T11:57:55.997Z,12.23
2018-11-02T12:00:24.228Z,11.93
2018-11-02T12:02:53.094Z,12.00
2018-11-02T12:05:22.386Z,13.40
2018-11-02T12:07:50.532Z,12.00
2018-11-02T12:10:19.406Z,12.20
2018-11-02T12:12:47.481Z,13.33
2018-11-02T12:15:16.952Z,12.13
2018-11-02T12:17:45.787Z,12.20
2018-11-02T12:20:15.671Z,14.60
2018-11-02T12:22:44.383Z,14.60
2018-11-02T12:25:13.399Z,11.13
2018-11-02T12:27:41.514Z,11.93
2018-11-02T12:30:10.897Z,14.70
2018-11-02T12:32:39.014Z,16.73
2018-11-02T12:35:08.045Z,11.97
2018-11-02T12:37:36.238Z,10.33
2018-11-02T12:40:05.485Z,12.87
2018-11-02T12:42:33.621Z,12.57
2018-11-02T12:45:01.791Z,17.33
2018-11-02T12:47:30.043Z,11.70
2018-11-02T12:49:58.263Z,12.77
2018-11-02T12:52:26.358Z,11.40
2018-11-02T12:54:54.503Z,14.37
2018-11-02T12:57:22.689Z,13.37
2018-11-02T12:59:50.807Z,13.13
2018-11-02T13:02:18.965Z,12.20
2018-11-02T13:04:47.074Z,12.23
2018-11-02T13:07:15.181Z,12.17
2018-11-02T13:09:43.413Z,10.83
2018-11-02T13:12:11.552Z,12.30
2018-11-02T13:14:39.697Z,13.47
2018-11-02T13:17:07.794Z,14.33
2018-11-02T13:19:35.883Z,11.73
2018-11-02T13:22:04.076Z,12.90
2018-11-02T13:24:32.188Z,15.77
2018-11-02T13:27:00.461Z,10.63
2018-11-02T13:29:28.557Z,13.53
2018-11-02T13:31:56.890Z,12.47
2018-11-02T13:34:24.929Z,11.67
2018-11-02T13:36:53.116Z,15.90
2018-11-02T13:39:21.233Z,13.30
2018-11-02T13:41:49.359Z,15.80
2018-11-02T13:44:17.476Z,15.33
2018-11-02T13:46:45.664Z,12.10
2018-11-02T13:49:13.791Z,14.53
2018-11-02T13:51:41.903Z,16.60
2018-11-02T13:54:10.074Z,16.47
2018-11-02T13:56:38.186Z,20.10
2018-11-02T13:59:06.348Z,16.70
2018-11-02T14:01:34.458Z,16.03
2018-11-02T14:04:02.839Z,15.53
2018-11-02T14:06:30.964Z,14.83
2018-11-02T14:08:59.132Z,16.07
2018-11-02T14:11:27.315Z,17.10
2018-11-02T14:13:55.463Z,15.07
2018-11-02T14:16:23.589Z,13.17
2018-11-02T14:18:51.695Z,16.00
2018-11-02T14:21:19.818Z,15.47
2018-11-02T14:23:47.941Z,11.50
2018-11-02T14:26:16.078Z,14.77
2018-11-02T14:28:44.257Z,13.03
2018-11-02T14:31:12.376Z,11.33
2018-11-02T14:33:40.587Z,12.97
2018-11-02T14:36:08.744Z,11.63
2018-11-02T14:38:36.857Z,12.73
2018-11-02T14:41:05.616Z,12.33
2018-11-02T14:43:33.609Z,14.23
2018-11-02T14:46:01.745Z,12.07
2018-11-02T14:48:29.844Z,10.93
2018-11-02T14:50:57.950Z,11.83
2018-11-02T14:53:26.078Z,13.63
2018-11-02T14:55:54.169Z,10.73
2018-11-02T14:58:22.287Z,13.30
2018-11-02T15:00:50.424Z,14.33
2018-11-02T15:03:18.591Z,12.13
2018-11-02T15:05:46.698Z,12.93
2018-11-02T15:08:14.861Z,13.07
2018-11-02T15:10:42.960Z,12.57
2018-11-02T15:13:11.115Z,12.30
2018-11-02T15:15:39.262Z,12.30
2018-11-02T15:18:07.359Z,13.37
2018-11-02T15:20:35.517Z,10.70
2018-11-02T15:23:03.654Z,12.20
2018-11-02T15:25:31.813Z,11.10
2018-11-02T15:27:59.959Z,11.23
2018-11-02T15:30:28.136Z,10.30
2018-11-02T15:32:56.284Z,13.70
2018-11-02T15:35:24.434Z,9.10
2018-11-02T15:37:52.531Z,9.53
2018-11-02T15:40:20.737Z,12.10
2018-11-02T15:42:48.849Z,10.27
2018-11-02T15:45:16.987Z,11.70
2018-11-02T15:47:45.595Z,11.37
2018-11-02T15:50:13.752Z,12.50
2018-11-02T15:52:41.957Z,13.77
2018-11-02T15:55:11.355Z,11.87
2018-11-02T15:57:39.554Z,13.47
2018-11-02T16:00:13.859Z,10.87
2018-11-02T16:02:42.079Z,12.07
2018-11-02T16:05:10.852Z,12.93
2018-11-02T16:07:39.338Z,11.33
2018-11-02T16:10:08.124Z,13.33
2018-11-02T16:12:36.215Z,13.37
2018-11-02T16:15:04.821Z,12.43
2018-11-02T16:17:32.935Z,12.10
2018-11-02T16:20:01.095Z,12.37
2018-11-02T16:22:29.585Z,19.00
2018-11-02T16:24:57.744Z,25.10
2018-11-02T16:27:25.855Z,24.07
2018-11-02T16:29:53.984Z,18.80
2018-11-02T16:32:22.042Z,24.97
2018-11-02T16:34:50.243Z,18.47
2018-11-02T16:37:18.385Z,23.10
2018-11-02T16:39:46.717Z,17.67
2018-11-02T16:42:14.897Z,16.17
2018-11-02T16:44:43.070Z,12.17
2018-11-02T16:47:11.130Z,15.40
2018-11-02T16:49:39.268Z,15.40
2018-11-02T16:52:07.450Z,14.67
2018-11-02T16:54:35.671Z,16.73
2018-11-02T16:57:03.825Z,14.10
2018-11-02T16:59:32.021Z,16.30
2018-11-02T17:02:00.141Z,13.17
2018-11-02T17:04:28.383Z,16.77
2018-11-02T17:06:56.485Z,16.20
2018-11-02T17:09:24.658Z,17.53
2018-11-02T17:11:52.775Z,20.00
2018-11-02T17:14:20.905Z,17.10
2018-11-02T17:16:49.066Z,21.10
2018-11-02T17:19:17.203Z,44.63
2018-11-02T17:21:45.429Z,49.90
2018-11-02T17:24:13.588Z,62.50
2018-11-02T17:26:41.734Z,62.30
2018-11-02T17:29:10.177Z,48.10
2018-11-02T17:31:38.276Z,28.20
2018-11-02T17:34:06.505Z,23.03
2018-11-02T17:36:34.717Z,19.97
2018-11-02T17:39:03.564Z,18.83
2018-11-02T17:41:31.796Z,23.00
2018-11-02T17:43:59.944Z,17.80
2018-11-02T17:46:28.082Z,15.57
2018-11-02T17:48:56.262Z,14.77
2018-11-02T17:51:24.428Z,13.77
2018-11-02T17:53:52.530Z,17.63
2018-11-02T17:56:20.744Z,23.83
2018-11-02T17:58:48.872Z,17.17
2018-11-02T18:01:17.085Z,19.70
2018-11-02T18:03:45.220Z,17.13
2018-11-02T18:06:13.574Z,15.23
2018-11-02T18:08:41.638Z,10.70
2018-11-02T18:11:09.773Z,7.37
2018-11-02T18:13:37.883Z,6.70
2018-11-02T18:16:06.106Z,7.63
2018-11-02T18:18:34.312Z,5.80
2018-11-02T18:21:02.462Z,6.57
2018-11-02T18:23:30.613Z,7.20
2018-11-02T18:25:58.694Z,5.30
2018-11-02T18:28:26.789Z,6.27
2018-11-02T18:30:54.923Z,7.23
2018-11-02T18:33:23.053Z,5.10
2018-11-02T18:35:51.220Z,7.13
2018-11-02T18:38:19.398Z,6.13
2018-11-02T18:40:47.524Z,8.03
2018-11-02T18:43:15.609Z,6.30
2018-11-02T18:45:43.762Z,6.47
2018-11-02T18:48:11.881Z,6.37
2018-11-02T18:50:40.012Z,5.23
2018-11-02T18:53:08.171Z,7.07
2018-11-02T18:55:36.370Z,6.43
2018-11-02T18:58:04.515Z,5.53
2018-11-02T19:00:32.623Z,5.97
2018-11-02T19:03:00.793Z,5.50
2018-11-02T19:05:28.965Z,10.40
2018-11-02T19:07:57.051Z,5.03
2018-11-02T19:10:25.206Z,5.93
2018-11-02T19:12:53.267Z,7.03
2018-11-02T19:15:21.472Z,6.80
2018-11-02T19:17:49.619Z,6.20
2018-11-02T19:20:17.769Z,5.47
2018-11-02T19:22:46.103Z,4.87
2018-11-02T19:25:15.159Z,6.97
2018-11-02T19:27:44.039Z,4.93
2018-11-02T19:30:12.948Z,5.13
2018-11-02T19:32:41.128Z,6.57
2018-11-02T19:35:10.261Z,5.20
2018-11-02T19:37:38.189Z,4.53
2018-11-02T19:40:07.247Z,6.63
2018-11-02T19:42:35.378Z,6.07
2018-11-02T19:45:03.552Z,4.50
2018-11-02T19:47:37.099Z,4.73
2018-11-02T19:50:06.202Z,4.77
2018-11-02T19:52:34.357Z,4.17
2018-11-02T19:55:02.494Z,6.30
2018-11-02T19:57:30.718Z,5.03
2018-11-02T19:59:58.817Z,4.40
2018-11-02T20:02:26.955Z,5.30
2018-11-02T20:04:55.288Z,5.50
2018-11-02T20:07:23.465Z,5.50
2018-11-02T20:09:51.617Z,8.97
2018-11-02T20:12:19.770Z,5.63
2018-11-02T20:14:47.933Z,4.70
2018-11-02T20:17:16.101Z,7.03
2018-11-02T20:19:44.232Z,6.07
2018-11-02T20:22:12.361Z,8.50
2018-11-02T20:24:40.526Z,6.37
2018-11-02T20:27:08.636Z,5.20
2018-11-02T20:29:36.787Z,6.73
2018-11-02T20:32:05.134Z,7.07
2018-11-02T20:34:33.208Z,8.37
2018-11-02T20:37:02.160Z,11.37
2018-11-02T20:39:30.367Z,9.03
2018-11-02T20:41:58.485Z,9.10
2018-11-02T20:44:26.623Z,9.10
2018-11-02T20:46:54.747Z,6.33
2018-11-02T20:49:22.858Z,7.47
2018-11-02T20:51:51.011Z,6.30
2018-11-02T20:54:19.094Z,6.70
2018-11-02T20:56:47.244Z,8.13
2018-11-02T20:59:15.406Z,6.47
2018-11-02T21:01:43.549Z,6.43
2018-11-02T21:04:11.678Z,6.73
2018-11-02T21:06:39.816Z,9.67
2018-11-02T21:09:09.116Z,8.53
2018-11-02T21:11:37.282Z,7.47
2018-11-02T21:14:05.499Z,9.87
2018-11-02T21:16:33.608Z,5.77
2018-11-02T21:19:01.759Z,6.87
2018-11-02T21:21:29.997Z,8.50
2018-11-02T21:23:58.146Z,7.93
2018-11-02T21:26:26.278Z,7.07
2018-11-02T21:28:54.479Z,9.27
2018-11-02T21:31:22.617Z,6.13
2018-11-02T21:33:50.805Z,6.00
2018-11-02T21:36:18.955Z,6.83
2018-11-02T21:38:50.220Z,6.93
2018-11-02T21:41:18.327Z,8.13
2018-11-02T21:43:46.461Z,7.40
2018-11-02T21:46:14.569Z,7.17
2018-11-02T21:48:42.795Z,6.43
2018-11-02T21:51:10.909Z,6.00
2018-11-02T21:53:39.170Z,10.57
2018-11-02T21:56:07.197Z,7.97
2018-11-02T21:58:35.451Z,7.07
2018-11-02T22:01:03.521Z,9.70
2018-11-02T22:03:31.632Z,8.27
2018-11-02T22:05:59.887Z,5.63
2018-11-02T22:08:27.908Z,8.40
2018-11-02T22:10:56.031Z,7.27
2018-11-02T22:13:24.141Z,8.67
2018-11-02T22:15:52.309Z,7.90
2018-11-02T22:18:20.460Z,7.27
2018-11-02T22:20:48.625Z,8.27
2018-11-02T22:23:16.734Z,8.20
2018-11-02T22:25:44.809Z,6.67
2018-11-02T22:28:12.943Z,7.10
2018-11-02T22:30:41.070Z,5.83
2018-11-02T22:33:09.201Z,6.30
2018-11-02T22:35:37.313Z,5.33
2018-11-02T22:38:05.459Z,8.10
2018-11-02T22:40:33.588Z,6.57
2018-11-02T22:43:01.712Z,8.03
2018-11-02T22:45:29.841Z,7.20
2018-11-02T22:48:03.545Z,7.37
2018-11-02T22:50:31.675Z,6.93
2018-11-02T22:52:59.788Z,6.93
2018-11-02T22:55:27.872Z,5.83
2018-11-02T22:57:55.960Z,6.77
2018-11-02T23:00:24.211Z,5.37
2018-11-02T23:02:52.291Z,7.90
2018-11-02T23:05:20.434Z,7.53
2018-11-02T23:07:48.594Z,6.00
2018-11-02T23:10:16.692Z,8.23
2018-11-02T23:12:44.830Z,4.87
2018-11-02T23:15:13.342Z,7.03
2018-11-02T23:17:41.492Z,6.63
2018-11-02T23:20:11.164Z,5.90
2018-11-02T23:22:39.283Z,6.50
2018-11-02T23:25:08.464Z,5.97
2018-11-02T23:27:36.652Z,5.47
2018-11-02T23:30:05.794Z,5.47
2018-11-02T23:32:33.838Z,6.03
2018-11-02T23:35:02.001Z,4.73
2018-11-02T23:37:30.127Z,6.73
2018-11-02T23:39:58.225Z,4.60
2018-11-02T23:42:26.348Z,6.27
2018-11-02T23:44:54.528Z,6.07
2018-11-02T23:47:22.639Z,6.30
2018-11-02T23:49:50.850Z,4.53
2018-11-02T23:52:19.006Z,5.50
2018-11-02T23:54:47.193Z,6.33
2018-11-02T23:57:15.282Z,4.70
2018-11-02T23:59:43.387Z,6.23
